Time;durP1;ratioP1;P1;durP2;ratioP2;P2;SDS_P1;SDS_P2;PMS_P1;PMS_P2;Temp;Humidity;BMP_temperature;BMP_pressure;BME280_temperature;BME280_humidity;BME280_pressure;Samples;Min_cycle;Max_cycle;Signal;HPM_P1;HPM_P2
2023/05/30 00:04:51;;;;;;;4.90;3.53;;;;;;;8.42;100.00;97059.81;10537633;28;20284;-65
2023/05/30 00:09:52;;;;;;;6.10;3.83;;;;;;;8.31;100.00;97059.94;10538204;28;20190;-65
2023/05/30 00:14:55;;;;;;;7.97;4.57;;;;;;;8.22;100.00;97064.16;10537566;28;20727;-66
2023/05/30 00:19:56;;;;;;;6.50;4.17;;;;;;;8.28;100.00;97073.25;10537604;28;20203;-65
2023/05/30 00:24:59;;;;;;;8.60;3.80;;;;;;;8.31;100.00;97065.16;10537202;28;20214;-65
2023/05/30 00:29:59;;;;;;;12.17;4.27;;;;;;;8.30;100.00;97068.72;10537562;28;20256;-66
2023/05/30 00:35:00;;;;;;;6.90;4.07;;;;;;;8.26;100.00;97062.94;10536736;28;20563;-66
2023/05/30 00:40:00;;;;;;;6.97;4.10;;;;;;;8.26;100.00;97054.31;10536867;28;20619;-66
2023/05/30 00:45:01;;;;;;;7.80;4.27;;;;;;;8.23;100.00;97058.00;10535459;28;20688;-65
2023/05/30 00:50:01;;;;;;;5.87;3.50;;;;;;;8.19;100.00;97056.59;10518482;28;20218;-65
2023/05/30 00:55:02;;;;;;;7.73;3.73;;;;;;;8.03;100.00;97059.72;10535979;28;20226;-66
2023/05/30 01:00:03;;;;;;;5.37;3.70;;;;;;;7.86;100.00;97069.81;10517807;28;20217;-65
2023/05/30 01:05:06;;;;;;;8.93;3.80;;;;;;;7.88;100.00;97061.03;10552918;22;20252;-65
2023/05/30 01:10:07;;;;;;;9.80;3.73;;;;;;;7.85;100.00;97064.72;10535024;28;20198;-65
2023/05/30 01:15:11;;;;;;;6.87;3.53;;;;;;;7.88;100.00;97068.88;10535896;28;20214;-65
2023/05/30 01:20:13;;;;;;;5.73;3.70;;;;;;;7.79;100.00;97068.66;10516453;28;20186;-66
2023/05/30 01:25:35;;;;;;;8.67;3.93;;;;;;;7.61;100.00;97076.28;10517584;28;20684;-65
2023/05/30 01:30:46;;;;;;;7.57;3.90;;;;;;;7.52;100.00;97084.03;10511095;28;20187;-66
2023/05/30 01:35:47;;;;;;;7.93;3.50;;;;;;;7.50;100.00;97074.59;10512449;28;20230;-65
2023/05/30 01:40:50;;;;;;;7.20;3.87;;;;;;;7.54;100.00;97080.34;10535386;28;20198;-66
2023/05/30 01:46:04;;;;;;;10.37;3.83;;;;;;;7.55;100.00;97082.00;10535353;28;20733;-66
2023/05/30 01:51:08;;;;;;;8.53;3.93;;;;;;;7.52;100.00;97081.44;10514733;28;20605;-66
2023/05/30 01:56:09;;;;;;;7.93;3.90;;;;;;;7.41;100.00;97083.16;10519863;28;20696;-66
2023/05/30 02:01:10;;;;;;;14.13;4.70;;;;;;;7.45;100.00;97084.53;10506807;28;20252;-66
2023/05/30 02:06:11;;;;;;;7.33;3.87;;;;;;;7.42;100.00;97086.59;10523185;28;20233;-67
2023/05/30 02:11:12;;;;;;;10.07;4.00;;;;;;;7.29;100.00;97085.00;10543074;28;20191;-66
2023/05/30 02:16:13;;;;;;;6.37;3.60;;;;;;;7.19;100.00;97080.69;10541848;28;20670;-67
2023/05/30 02:21:13;;;;;;;8.17;3.70;;;;;;;7.11;100.00;97083.91;10523462;28;20653;-66
2023/05/30 02:26:15;;;;;;;6.23;3.53;;;;;;;7.07;100.00;97090.31;10524079;28;20213;-67
2023/05/30 02:31:16;;;;;;;9.50;4.10;;;;;;;6.95;100.00;97092.13;10523916;28;20185;-66
2023/05/30 02:36:16;;;;;;;12.73;3.90;;;;;;;6.69;100.00;97096.84;10542002;28;20225;-67
2023/05/30 02:41:18;;;;;;;5.80;3.73;;;;;;;6.69;100.00;97089.88;10522904;28;20572;-66
2023/05/30 02:46:19;;;;;;;10.60;4.20;;;;;;;6.57;100.00;97091.66;10523141;28;20206;-66
2023/05/30 02:51:21;;;;;;;7.90;3.70;;;;;;;6.49;100.00;97103.63;10537962;28;20561;-66
2023/05/30 02:56:25;;;;;;;8.97;3.87;;;;;;;6.29;100.00;97108.63;10514104;28;20219;-66
2023/05/30 03:01:32;;;;;;;4.93;3.27;;;;;;;6.18;100.00;97108.63;10515606;28;20179;-65
2023/05/30 03:06:35;;;;;;;6.77;3.63;;;;;;;6.19;100.00;97112.91;10514771;28;20272;-66
2023/05/30 03:11:44;;;;;;;11.40;4.07;;;;;;;6.17;100.00;97112.19;10516977;28;20660;-66
2023/05/30 03:16:45;;;;;;;8.37;4.03;;;;;;;6.12;100.00;97106.50;10516673;28;20305;-66
2023/05/30 03:21:49;;;;;;;13.00;4.40;;;;;;;6.10;100.00;97113.63;10517261;28;20190;-66
2023/05/30 03:26:51;;;;;;;12.00;4.27;;;;;;;6.04;100.00;97105.31;10517195;28;20198;-66
2023/05/30 03:31:53;;;;;;;8.77;3.80;;;;;;;6.06;100.00;97111.25;10518363;28;20195;-66
2023/05/30 03:36:53;;;;;;;7.47;4.27;;;;;;;6.07;100.00;97120.69;10539304;28;20218;-65
2023/05/30 03:41:54;;;;;;;10.77;3.87;;;;;;;6.11;100.00;97112.66;10517305;28;20238;-66
2023/05/30 03:46:54;;;;;;;7.80;4.10;;;;;;;6.09;100.00;97112.78;10539147;28;20202;-66
2023/05/30 03:51:54;;;;;;;6.80;3.70;;;;;;;6.15;100.00;97114.06;10538756;28;20196;-66
2023/05/30 03:56:55;;;;;;;13.00;3.63;;;;;;;6.31;100.00;97114.53;10538433;28;20760;-66
2023/05/30 04:01:55;;;;;;;7.67;3.53;;;;;;;6.40;100.00;97121.63;10538125;28;20669;-65
2023/05/30 04:06:55;;;;;;;9.50;3.63;;;;;;;6.56;100.00;97126.44;10538127;28;20222;-66
2023/05/30 04:11:56;;;;;;;5.90;3.27;;;;;;;6.55;100.00;97126.56;10516357;28;20639;-66
2023/05/30 04:16:56;;;;;;;10.83;4.43;;;;;;;6.66;100.00;97120.50;10537469;28;20218;-66
2023/05/30 04:21:58;;;;;;;7.60;3.43;;;;;;;6.66;100.00;97131.78;10516229;28;20273;-66
2023/05/30 04:27:00;;;;;;;6.20;3.40;;;;;;;6.68;100.00;97131.66;10537417;28;20199;-66
2023/05/30 04:32:01;;;;;;;5.63;3.43;;;;;;;6.76;100.00;97129.25;10537373;28;20218;-66
2023/05/30 04:37:01;;;;;;;6.80;3.90;;;;;;;6.99;100.00;97132.63;10537062;28;20226;-66
2023/05/30 04:42:04;;;;;;;7.70;3.50;;;;;;;7.23;100.00;97135.03;10516041;28;20619;-67
2023/05/30 04:47:10;;;;;;;9.27;3.93;;;;;;;7.46;100.00;97140.13;10536808;28;20760;-66
2023/05/30 04:52:10;;;;;;;5.70;3.47;;;;;;;7.58;100.00;97131.31;10516829;28;20275;-65
2023/05/30 04:57:12;;;;;;;8.67;3.77;;;;;;;7.82;100.00;97140.63;10536462;28;20305;-66
2023/05/30 05:02:13;;;;;;;12.30;3.57;;;;;;;8.09;100.00;97149.72;10516778;28;20194;-66
2023/05/30 05:07:13;;;;;;;10.07;3.70;;;;;;;8.54;100.00;97144.13;10536076;28;20602;-66
2023/05/30 05:12:13;;;;;;;8.43;4.07;;;;;;;9.05;100.00;97137.06;10535968;28;20250;-66
2023/05/30 05:17:14;;;;;;;13.77;3.90;;;;;;;9.51;100.00;97125.09;10535668;28;20218;-65
2023/05/30 05:22:14;;;;;;;9.60;3.80;;;;;;;10.18;99.46;97117.22;10535722;28;20632;-66
2023/05/30 05:27:14;;;;;;;5.07;3.67;;;;;;;10.65;97.91;97126.81;10535494;28;20222;-66
2023/05/30 05:32:15;;;;;;;8.60;3.83;;;;;;;11.00;96.38;97125.22;10535194;28;20198;-66
2023/05/30 05:37:15;;;;;;;15.73;4.00;;;;;;;11.60;92.59;97116.72;10535395;28;20238;-66
2023/05/30 05:42:15;;;;;;;11.10;3.78;;;;;;;11.97;88.23;97109.59;10535201;28;20197;-67
2023/05/30 05:47:16;;;;;;;10.32;4.07;;;;;;;11.97;85.81;97094.66;10560309;28;20190;-67
2023/05/30 05:52:16;;;;;;;10.10;3.60;;;;;;;12.33;84.39;97102.41;10574718;28;20230;-66
2023/05/30 05:57:17;;;;;;;10.65;3.42;;;;;;;12.47;80.75;97080.78;10577069;28;20217;-66
2023/05/30 06:02:17;;;;;;;11.18;3.13;;;;;;;13.07;75.90;97038.66;10576996;28;20186;-66
2023/05/30 06:07:17;;;;;;;8.35;3.03;;;;;;;13.18;74.94;97044.41;10577354;28;20229;-65
2023/05/30 06:12:18;;;;;;;11.13;3.22;;;;;;;13.58;72.49;97026.13;10576836;28;20194;-66
2023/05/30 06:17:18;;;;;;;7.70;2.88;;;;;;;13.59;70.37;97014.63;10576825;28;20225;-66
2023/05/30 06:22:18;;;;;;;9.27;2.40;;;;;;;14.56;59.80;96879.94;10576530;28;20192;-66
2023/05/30 06:27:19;;;;;;;7.63;2.30;;;;;;;15.75;59.01;96908.25;10576799;28;20345;-66
2023/05/30 06:32:20;;;;;;;4.72;2.47;;;;;;;16.90;55.04;96885.44;10576257;28;20193;-67
2023/05/30 06:37:20;;;;;;;6.70;2.30;;;;;;;17.52;52.16;96858.31;10576382;28;20247;-66
2023/05/30 06:42:21;;;;;;;5.72;2.00;;;;;;;17.27;48.96;96788.16;10579165;28;20236;-66
2023/05/30 06:47:22;;;;;;;5.30;2.30;;;;;;;16.79;51.77;96864.78;10557075;28;20182;-67
2023/05/30 06:52:22;;;;;;;4.85;1.83;;;;;;;16.72;48.25;96793.31;10583773;28;20240;-67
2023/05/30 06:57:24;;;;;;;4.43;2.03;;;;;;;17.95;42.39;96715.00;10538125;28;20211;-67
2023/05/30 07:02:24;;;;;;;3.75;1.70;;;;;;;17.14;43.28;96723.75;10579471;28;20198;-67
2023/05/30 07:07:25;;;;;;;4.00;1.67;;;;;;;17.62;44.80;96792.56;10548117;22;20238;-67
2023/05/30 07:12:25;;;;;;;4.15;1.80;;;;;;;18.94;40.54;96741.63;10553848;28;20217;-66
2023/05/30 07:17:25;;;;;;;4.72;1.80;;;;;;;19.10;40.23;96746.50;10579643;28;20221;-67
2023/05/30 07:22:26;;;;;;;6.35;2.00;;;;;;;17.69;42.33;96772.22;10563868;28;20288;-66
2023/05/30 07:27:26;;;;;;;7.20;1.70;;;;;;;17.24;44.24;96817.69;10578439;28;20251;-66
2023/05/30 07:32:27;;;;;;;7.55;1.95;;;;;;;18.31;43.46;96831.25;10566813;28;20621;-68
2023/05/30 07:37:27;;;;;;;7.20;2.22;;;;;;;17.63;45.21;96850.66;10538141;28;20594;-67
2023/05/30 07:42:27;;;;;;;5.78;2.20;;;;;;;18.21;42.36;96795.53;10537601;28;20747;-66
2023/05/30 07:47:28;;;;;;;5.65;1.83;;;;;;;18.58;43.16;96839.25;10537215;28;20586;-67
2023/05/30 07:52:28;;;;;;;6.45;1.90;;;;;;;17.89;43.90;96835.88;10537122;28;20205;-66
2023/05/30 07:57:30;;;;;;;6.15;2.00;;;;;;;18.85;42.01;96825.97;10549391;28;20707;-66
2023/05/30 08:02:31;;;;;;;6.65;2.47;;;;;;;17.99;44.45;96857.53;10579474;28;20643;-66
2023/05/30 08:07:31;;;;;;;6.85;1.90;;;;;;;19.20;42.81;96876.16;10579504;28;20312;-66
2023/05/30 08:12:31;;;;;;;6.07;2.30;;;;;;;18.45;45.37;96901.09;10579253;28;20238;-69
2023/05/30 08:17:33;;;;;;;7.93;1.98;;;;;;;18.47;44.99;96906.19;10578488;28;20237;-67
2023/05/30 08:22:33;;;;;;;5.63;1.70;;;;;;;18.66;43.46;96862.91;10577970;28;20194;-68
2023/05/30 08:27:37;;;;;;;3.08;1.50;;;;;;;18.58;42.32;96835.78;10577752;28;20695;-68
2023/05/30 08:32:38;;;;;;;5.85;1.77;;;;;;;19.02;39.46;96789.19;10576462;28;20190;-68
2023/05/30 08:37:38;;;;;;;6.97;1.85;;;;;;;19.27;39.63;96804.47;10576312;28;20245;-67
2023/05/30 08:42:39;;;;;;;7.57;1.50;;;;;;;20.38;39.25;96829.03;10577374;28;20200;-65
2023/05/30 08:47:40;;;;;;;5.40;1.50;;;;;;;20.44;39.29;96813.06;10576705;28;20210;-66
2023/05/30 08:52:41;;;;;;;3.78;1.55;;;;;;;20.66;39.40;96832.13;10561400;28;20277;-67
2023/05/30 08:57:50;;;;;;;7.20;1.90;;;;;;;20.11;38.99;96811.44;10563481;28;20221;-68
2023/05/30 09:02:55;;;;;;;6.68;1.60;;;;;;;19.95;37.65;96775.53;10557655;28;20194;-68
2023/05/30 09:07:56;;;;;;;2.88;1.60;;;;;;;19.68;38.36;96784.63;10576682;28;20198;-67
2023/05/30 09:12:59;;;;;;;4.40;1.30;;;;;;;19.47;36.56;96728.13;10576416;28;20200;-67
2023/05/30 09:18:00;;;;;;;4.13;1.33;;;;;;;19.47;36.76;96730.00;10576754;28;20226;-68
2023/05/30 09:23:01;;;;;;;3.97;1.60;;;;;;;20.98;34.99;96752.16;10575501;28;20201;-67
2023/05/30 09:28:01;;;;;;;3.85;1.63;;;;;;;21.08;37.81;96836.06;10572952;28;20186;-67
2023/05/30 09:33:02;;;;;;;8.05;2.30;;;;;;;20.34;35.38;96738.22;10572437;28;20186;-69
2023/05/30 09:38:04;;;;;;;5.13;2.10;;;;;;;21.26;37.32;96835.28;10595905;28;20296;-67
2023/05/30 09:43:04;;;;;;;8.38;1.88;;;;;;;21.37;37.30;96845.19;10618817;28;20219;-67
2023/05/30 09:48:05;;;;;;;3.75;1.65;;;;;;;22.36;35.36;96822.81;10618028;28;20186;-67
2023/05/30 09:53:05;;;;;;;6.30;2.10;;;;;;;21.34;35.08;96771.81;10618572;28;20292;-68
2023/05/30 09:58:05;;;;;;;4.72;1.65;;;;;;;20.48;37.81;96810.75;10618387;28;20262;-67
2023/05/30 10:03:06;;;;;;;4.28;1.88;;;;;;;21.29;36.90;96824.97;10599715;28;20209;-67
2023/05/30 10:08:06;;;;;;;3.90;1.75;;;;;;;20.87;37.65;96824.78;10598593;28;20205;-67
2023/05/30 10:13:07;;;;;;;9.25;1.92;;;;;;;21.56;36.36;96816.69;10599111;28;20216;-67
2023/05/30 10:18:08;;;;;;;4.07;1.58;;;;;;;21.91;35.39;96810.69;10624137;27;20192;-66
2023/05/30 10:23:10;;;;;;;5.20;1.75;;;;;;;22.80;33.40;96780.59;10587964;27;20214;-67
2023/05/30 10:28:18;;;;;;;4.07;1.95;;;;;;;21.73;34.65;96769.72;10565196;28;20238;-69
2023/05/30 10:33:20;;;;;;;4.13;1.52;;;;;;;21.96;36.35;96832.19;10565296;28;20198;-68
2023/05/30 10:38:21;;;;;;;3.83;1.90;;;;;;;22.76;33.46;96788.25;10580184;28;20250;-68
2023/05/30 10:43:27;;;;;;;9.20;1.83;;;;;;;22.22;35.81;96823.00;10580383;28;20688;-68
2023/05/30 10:48:49;;;;;;;4.80;1.60;;;;;;;22.31;34.93;96790.66;10564257;28;20732;-67
2023/05/30 10:53:50;;;;;;;5.53;1.77;;;;;;;22.45;35.08;96794.75;10578822;28;20217;-67
2023/05/30 10:58:50;;;;;;;3.88;1.77;;;;;;;22.87;33.43;96754.56;10581710;28;20609;-68
2023/05/30 11:03:58;;;;;;;5.05;2.03;;;;;;;23.02;31.21;96706.00;10581630;28;20294;-69
2023/05/30 11:09:05;;;;;;;4.53;1.65;;;;;;;23.12;32.31;96746.34;10580563;28;20190;-69
2023/05/30 11:14:07;;;;;;;5.30;1.70;;;;;;;23.64;32.58;96772.19;10581015;28;20806;-68
2023/05/30 11:19:11;;;;;;;4.60;1.50;;;;;;;24.14;31.06;96751.97;10581029;28;20190;-70
2023/05/30 11:24:16;;;;;;;5.47;1.42;;;;;;;24.04;31.37;96754.47;10581004;28;20213;-68
2023/05/30 11:29:33;;;;;;;5.03;1.35;;;;;;;24.74;31.60;96782.66;10579741;28;20277;-68
2023/05/30 11:34:34;;;;;;;3.33;1.50;;;;;;;24.22;31.26;96745.41;10580123;28;20369;-68
2023/05/30 11:39:36;;;;;;;4.07;1.50;;;;;;;24.95;32.09;96799.03;10580136;28;20694;-69
2023/05/30 11:44:36;;;;;;;5.40;2.03;;;;;;;23.53;32.50;96748.19;10579064;28;20206;-68
2023/05/30 11:49:36;;;;;;;4.78;2.00;;;;;;;24.76;30.48;96739.53;10575870;28;20223;-69
2023/05/30 11:54:37;;;;;;;3.63;1.60;;;;;;;24.90;29.25;96697.13;10584908;27;20228;-70
2023/05/30 11:59:40;;;;;;;2.57;1.53;;;;;;;24.13;31.79;96747.66;10613225;27;20476;-68
2023/05/30 12:04:42;;;;;;;3.88;1.52;;;;;;;25.33;29.80;96732.25;10577876;28;20566;-69
2023/05/30 12:09:42;;;;;;;4.95;1.55;;;;;;;25.11;29.54;96706.22;10577762;28;20620;-69
2023/05/30 12:14:47;;;;;;;5.17;1.50;;;;;;;24.37;29.47;96672.53;10576489;28;20218;-69
2023/05/30 12:19:55;;;;;;;5.03;1.83;;;;;;;24.14;30.51;96703.00;10577469;28;20447;-68
2023/05/30 12:24:55;;;;;;;5.03;1.92;;;;;;;25.15;30.22;96742.22;10576879;28;20210;-68
2023/05/30 12:29:55;;;;;;;2.95;1.48;;;;;;;24.27;30.81;96705.31;10576856;28;20204;-67
2023/05/30 12:34:58;;;;;;;3.38;2.20;;;;;;;23.91;30.49;96690.56;10576956;28;20225;-67
2023/05/30 12:40:00;;;;;;;9.95;1.90;;;;;;;25.74;29.86;96754.16;10576077;28;20209;-67
2023/05/30 12:45:02;;;;;;;4.30;1.70;;;;;;;24.97;27.56;96640.66;10558174;28;20216;-65
2023/05/30 12:50:03;;;;;;;5.25;1.42;;;;;;;24.89;30.08;96730.34;10576278;28;20204;-66
2023/05/30 12:55:04;;;;;;;4.38;1.38;;;;;;;25.48;27.83;96688.69;10575732;28;20593;-65
2023/05/30 13:00:05;;;;;;;3.92;1.70;;;;;;;24.74;27.49;96631.81;10576134;28;20200;-66
2023/05/30 13:05:06;;;;;;;6.70;2.47;;;;;;;25.71;28.69;96722.47;10587354;22;20786;-67
2023/05/30 13:10:08;;;;;;;2.95;1.50;;;;;;;25.34;29.24;96713.22;10572492;28;20198;-67
2023/05/30 13:15:08;;;;;;;5.20;1.90;;;;;;;24.92;29.99;96729.84;10561299;28;21070;-67
2023/05/30 13:20:09;;;;;;;6.60;1.67;;;;;;;25.70;27.91;96685.97;10532799;28;20244;-67
2023/05/30 13:25:10;;;;;;;3.10;1.60;;;;;;;26.42;29.15;96754.53;10534772;28;20210;-68
2023/05/30 13:30:12;;;;;;;3.22;1.77;;;;;;;27.08;26.44;96691.50;10534344;28;20191;-67
2023/05/30 13:35:12;;;;;;;3.70;1.80;;;;;;;25.86;28.82;96711.06;10533944;28;20219;-68
2023/05/30 13:40:12;;;;;;;3.07;1.70;;;;;;;27.85;25.67;96685.50;10534174;28;20675;-68
2023/05/30 13:45:13;;;;;;;6.70;1.77;;;;;;;28.00;26.17;96688.25;10533891;28;20955;-66
2023/05/30 13:50:13;;;;;;;7.17;1.50;;;;;;;27.82;27.08;96700.31;10534240;28;20886;-67
2023/05/30 13:55:13;;;;;;;5.13;1.77;;;;;;;28.68;25.49;96695.19;10542397;28;20868;-67
2023/05/30 14:00:14;;;;;;;5.67;1.97;;;;;;;27.77;27.41;96732.63;10542366;28;20240;-68
2023/05/30 14:05:14;;;;;;;9.13;2.35;;;;;;;29.80;25.11;96711.16;10541766;28;20471;-68
2023/05/30 14:10:19;;;;;;;3.73;1.67;;;;;;;32.31;22.71;96729.22;10535841;28;20259;-68
2023/05/30 14:15:19;;;;;;;5.00;1.70;;;;;;;32.45;22.50;96706.72;10538620;28;20901;-68
2023/05/30 14:20:20;;;;;;;2.60;1.70;;;;;;;28.83;25.19;96643.09;10540396;28;20194;-67
2023/05/30 14:25:20;;;;;;;5.03;1.70;;;;;;;30.32;23.72;96677.28;10540042;28;20210;-68
2023/05/30 14:30:21;;;;;;;2.83;1.50;;;;;;;30.23;23.16;96652.75;10540942;28;20436;-68
2023/05/30 14:35:21;;;;;;;4.73;1.73;;;;;;;30.18;22.57;96623.06;10540910;28;20222;-67
2023/05/30 14:40:21;;;;;;;8.50;2.30;;;;;;;31.00;23.08;96694.47;10540345;28;20446;-68
2023/05/30 14:45:23;;;;;;;8.33;2.70;;;;;;;30.86;22.54;96642.94;10540529;28;20455;-68
2023/05/30 14:50:24;;;;;;;8.25;1.80;;;;;;;31.00;21.46;96612.50;10540466;28;21296;-68
2023/05/30 14:55:24;;;;;;;3.30;1.60;;;;;;;30.48;22.84;96650.91;10539032;28;20308;-68
2023/05/30 15:00:25;;;;;;;1.90;1.50;;;;;;;30.20;22.90;96642.53;10539936;28;20194;-68
2023/05/30 15:05:27;;;;;;;7.15;1.63;;;;;;;31.98;21.53;96660.63;10537562;28;20839;-68
2023/05/30 15:10:27;;;;;;;5.60;1.58;;;;;;;29.37;23.09;96602.94;10539824;28;20202;-68
2023/05/30 15:15:27;;;;;;;3.17;1.97;;;;;;;29.90;23.04;96634.69;10538553;28;20214;-67
2023/05/30 15:20:28;;;;;;;8.50;1.93;;;;;;;29.03;22.85;96569.38;10539182;28;20448;-67
2023/05/30 15:25:28;;;;;;;4.83;1.70;;;;;;;28.01;24.41;96592.09;10537525;28;20970;-67
2023/05/30 15:30:28;;;;;;;3.70;1.70;;;;;;;30.42;22.26;96649.38;10538134;28;20444;-66
2023/05/30 15:35:29;;;;;;;4.80;1.63;;;;;;;29.24;23.11;96617.88;10538415;28;20473;-68
2023/05/30 15:40:29;;;;;;;4.43;1.57;;;;;;;29.86;22.60;96637.16;10537861;28;20464;-68
2023/05/30 15:45:30;;;;;;;2.25;1.63;;;;;;;28.15;23.22;96578.88;10538195;28;20460;-67
2023/05/30 15:50:30;;;;;;;6.28;1.88;;;;;;;29.12;22.62;96597.38;10537498;28;20191;-67
2023/05/30 15:55:30;;;;;;;4.83;1.70;;;;;;;27.18;24.89;96583.97;10538156;28;20222;-67
2023/05/30 16:00:31;;;;;;;4.30;1.80;;;;;;;26.84;24.67;96567.47;10536863;28;20452;-67
2023/05/30 16:05:32;;;;;;;10.60;1.92;;;;;;;24.92;27.22;96574.41;10540033;28;20475;-68
2023/05/30 16:10:32;;;;;;;4.07;1.73;;;;;;;24.83;28.38;96637.56;10536863;28;20242;-68
2023/05/30 16:15:33;;;;;;;4.25;1.70;;;;;;;23.85;28.18;96593.34;10536114;28;20218;-68
2023/05/30 16:20:33;;;;;;;2.65;1.63;;;;;;;22.53;28.98;96569.34;10536913;28;20251;-67
2023/05/30 16:25:33;;;;;;;2.85;1.42;;;;;;;22.65;30.62;96650.22;10535499;28;20270;-67
2023/05/30 16:30:34;;;;;;;7.28;1.95;;;;;;;22.79;31.08;96669.47;10536431;28;20197;-67
2023/05/30 16:35:34;;;;;;;3.10;1.70;;;;;;;21.84;32.02;96663.31;10537317;28;20228;-67
2023/05/30 16:40:35;;;;;;;3.92;1.70;;;;;;;21.50;33.07;96694.97;10537169;28;20688;-67
2023/05/30 16:45:35;;;;;;;5.15;1.90;;;;;;;20.80;32.89;96672.28;10536840;28;20313;-67
2023/05/30 16:50:38;;;;;;;10.05;1.98;;;;;;;20.83;33.19;96679.81;10536182;28;20216;-67
2023/05/30 16:55:38;;;;;;;2.95;1.55;;;;;;;20.52;33.50;96697.53;10536053;28;20271;-67
2023/05/30 17:00:39;;;;;;;2.72;1.80;;;;;;;20.42;35.23;96739.78;10535864;28;20206;-68
2023/05/30 17:05:39;;;;;;;2.08;1.75;;;;;;;20.48;34.80;96736.25;10536122;28;20238;-67
2023/05/30 17:10:40;;;;;;;8.35;2.08;;;;;;;20.27;34.89;96740.09;10536189;28;20186;-67
2023/05/30 17:15:40;;;;;;;2.38;1.60;;;;;;;20.26;35.65;96765.91;10534955;28;20214;-66
2023/05/30 17:20:41;;;;;;;4.40;2.20;;;;;;;19.92;36.13;96770.66;10535174;28;20217;-67
2023/05/30 17:25:41;;;;;;;5.43;1.95;;;;;;;19.66;35.85;96765.44;10534474;28;20238;-67
2023/05/30 17:30:41;;;;;;;3.47;1.85;;;;;;;19.32;37.00;96784.19;10535037;28;20386;-66
2023/05/30 17:35:42;;;;;;;5.53;2.20;;;;;;;19.16;37.03;96784.69;10535035;28;20589;-66
2023/05/30 17:40:42;;;;;;;9.75;2.53;;;;;;;19.24;38.16;96817.13;10535587;28;20704;-66
2023/05/30 17:45:43;;;;;;;3.72;1.70;;;;;;;19.17;38.11;96815.50;10534735;28;20583;-66
2023/05/30 17:50:43;;;;;;;6.07;2.20;;;;;;;19.06;39.38;96846.97;10534935;28;20178;-66
2023/05/30 17:55:44;;;;;;;4.88;1.80;;;;;;;18.99;39.16;96840.03;10534578;28;20226;-66
2023/05/30 18:00:46;;;;;;;5.97;1.80;;;;;;;18.73;39.51;96854.97;10534601;28;20298;-66
2023/05/30 18:05:47;;;;;;;7.50;1.77;;;;;;;18.23;41.17;96889.00;10534479;28;20230;-66
2023/05/30 18:10:48;;;;;;;4.07;1.88;;;;;;;18.22;41.24;96892.66;10534221;28;20661;-66
2023/05/30 18:15:48;;;;;;;7.13;1.83;;;;;;;17.92;41.54;96887.69;10534396;28;20286;-66
2023/05/30 18:20:49;;;;;;;3.33;1.67;;;;;;;17.81;41.22;96881.09;10534037;28;20315;-66
2023/05/30 18:25:50;;;;;;;9.15;2.30;;;;;;;17.74;41.07;96872.28;10534041;28;20202;-65
2023/05/30 18:30:50;;;;;;;4.25;1.80;;;;;;;17.43;41.85;96885.00;10534100;28;20576;-65
2023/05/30 18:35:50;;;;;;;3.45;1.70;;;;;;;17.27;40.04;96838.47;10534363;28;20254;-65
2023/05/30 18:40:51;;;;;;;3.00;1.75;;;;;;;17.07;40.86;96851.56;10541622;28;20256;-65
2023/05/30 18:45:51;;;;;;;7.22;2.17;;;;;;;16.80;40.94;96862.97;10541085;28;20214;-65
2023/05/30 18:50:52;;;;;;;4.28;1.73;;;;;;;16.58;41.77;96876.22;10541231;28;20195;-65
2023/05/30 18:55:53;;;;;;;7.47;1.98;;;;;;;16.17;43.53;96917.34;10540597;28;20226;-66
2023/05/30 19:00:54;;;;;;;7.20;1.95;;;;;;;16.03;44.51;96934.88;10540732;28;20566;-65
2023/05/30 19:05:54;;;;;;;5.30;2.65;;;;;;;15.47;46.61;96971.47;10533228;22;20710;-64
2023/05/30 19:10:54;;;;;;;7.05;2.85;;;;;;;14.74;49.19;97016.78;10468145;28;20293;-63
2023/05/30 19:15:55;;;;;;;3.72;2.63;;;;;;;13.70;49.73;97002.91;10495472;28;20226;-65
2023/05/30 19:20:55;;;;;;;7.20;2.40;;;;;;;13.46;52.84;97075.69;10496983;28;20195;-63
2023/05/30 19:25:57;;;;;;;4.80;2.70;;;;;;;12.87;54.41;97086.28;10498269;28;20242;-64
2023/05/30 19:30:57;;;;;;;3.88;2.58;;;;;;;13.03;55.05;97114.41;10497834;28;20199;-66
2023/05/30 19:35:57;;;;;;;4.97;2.20;;;;;;;12.72;55.42;97106.31;10495913;28;20716;-65
2023/05/30 19:40:59;;;;;;;3.88;2.45;;;;;;;12.17;57.59;97133.84;10494514;28;20740;-66
2023/05/30 19:45:59;;;;;;;6.13;2.00;;;;;;;11.99;58.29;97137.38;10496881;28;20234;-65
2023/05/30 19:51:00;;;;;;;2.80;1.80;;;;;;;11.82;59.45;97146.06;10496343;28;20191;-65
2023/05/30 19:56:00;;;;;;;4.20;2.40;;;;;;;11.49;60.79;97169.44;10494535;28;20221;-64
2023/05/30 20:01:01;;;;;;;5.23;2.23;;;;;;;11.22;61.79;97163.28;10496493;28;20230;-64
2023/05/30 20:06:02;;;;;;;4.88;2.38;;;;;;;11.01;62.34;97167.03;10496101;28;20589;-65
2023/05/30 20:11:02;;;;;;;5.38;2.20;;;;;;;10.87;63.12;97180.59;10496098;28;20203;-64
2023/05/30 20:16:03;;;;;;;5.03;2.20;;;;;;;10.65;64.07;97172.19;10495719;28;20223;-65
2023/05/30 20:21:03;;;;;;;4.50;2.30;;;;;;;10.45;64.32;97183.72;10495598;28;20620;-65
2023/05/30 20:26:03;;;;;;;6.10;2.20;;;;;;;10.33;65.87;97193.53;10495287;28;20235;-65
2023/05/30 20:31:04;;;;;;;4.13;2.30;;;;;;;10.20;65.58;97187.75;10495274;28;20206;-65
2023/05/30 20:36:05;;;;;;;3.03;2.23;;;;;;;10.16;66.67;97188.03;10498173;28;20214;-64
2023/05/30 20:41:05;;;;;;;5.03;2.23;;;;;;;10.00;66.37;97185.22;10511182;28;20196;-65
2023/05/30 20:46:06;;;;;;;3.37;2.17;;;;;;;10.02;66.19;97185.06;10499944;28;20695;-63
2023/05/30 20:51:06;;;;;;;7.67;2.27;;;;;;;9.98;65.44;97185.34;10494658;28;20206;-64
2023/05/30 20:56:06;;;;;;;4.13;1.97;;;;;;;9.87;66.31;97182.88;10494602;28;20219;-63
2023/05/30 21:01:07;;;;;;;5.37;2.53;;;;;;;9.84;65.71;97179.72;10493631;28;20627;-63
2023/05/30 21:06:07;;;;;;;7.23;2.07;;;;;;;9.84;65.54;97179.72;10493856;28;20620;-63
2023/05/30 21:11:07;;;;;;;2.63;2.10;;;;;;;9.71;66.00;97191.31;10494317;28;20684;-64
2023/05/30 21:16:08;;;;;;;5.53;2.33;;;;;;;9.65;66.42;97194.47;10493673;28;20234;-64
2023/05/30 21:21:08;;;;;;;4.43;2.17;;;;;;;9.51;67.25;97200.09;10494322;28;20192;-65
2023/05/30 21:26:09;;;;;;;5.00;1.90;;;;;;;9.33;67.91;97206.03;10493724;28;20242;-64
2023/05/30 21:31:10;;;;;;;4.03;2.20;;;;;;;9.23;67.97;97218.25;10493891;28;20244;-65
2023/05/30 21:36:10;;;;;;;4.57;2.50;;;;;;;9.09;68.82;97222.09;10493964;28;20210;-63
2023/05/30 21:41:10;;;;;;;5.90;2.37;;;;;;;9.01;69.38;97235.81;10493658;28;20283;-63
2023/05/30 21:46:12;;;;;;;4.90;2.00;;;;;;;8.92;70.10;97245.28;10493764;28;20219;-64
2023/05/30 21:51:12;;;;;;;5.93;2.53;;;;;;;8.81;70.06;97232.34;10493394;28;20191;-64
2023/05/30 21:56:12;;;;;;;6.03;2.27;;;;;;;8.69;70.49;97246.44;10493591;28;20230;-63
2023/05/30 22:01:13;;;;;;;4.10;2.17;;;;;;;8.57;71.38;97250.94;10493359;28;20195;-65
2023/05/30 22:06:14;;;;;;;4.87;2.03;;;;;;;8.51;71.96;97249.66;10493417;28;20235;-64
2023/05/30 22:11:15;;;;;;;7.27;2.17;;;;;;;8.49;71.74;97254.19;10494938;28;20195;-65
2023/05/30 22:16:15;;;;;;;3.70;2.10;;;;;;;8.42;72.43;97266.06;10500884;28;20219;-65
2023/05/30 22:21:15;;;;;;;3.53;2.27;;;;;;;8.28;72.98;97267.22;10501157;28;20199;-65
2023/05/30 22:26:16;;;;;;;3.20;2.27;;;;;;;8.16;73.72;97263.03;10500588;28;20195;-65
2023/05/30 22:31:17;;;;;;;3.43;1.90;;;;;;;8.13;74.19;97274.56;10500584;28;20191;-65
2023/05/30 22:36:18;;;;;;;3.63;2.23;;;;;;;8.05;74.22;97269.16;10500140;28;20306;-64
2023/05/30 22:41:18;;;;;;;4.00;2.20;;;;;;;7.87;74.89;97271.47;10500056;28;20195;-64
2023/05/30 22:46:19;;;;;;;4.77;1.97;;;;;;;7.77;76.09;97275.81;10499883;28;20203;-64
2023/05/30 22:51:19;;;;;;;7.37;2.60;;;;;;;7.77;76.64;97273.19;10499698;28;20218;-62
2023/05/30 22:56:22;;;;;;;4.33;2.20;;;;;;;7.64;77.09;97265.53;10499645;28;20223;-64
2023/05/30 23:01:22;;;;;;;3.90;2.30;;;;;;;7.59;77.67;97263.28;10499330;28;20682;-64
2023/05/30 23:06:22;;;;;;;5.00;2.20;;;;;;;7.46;78.32;97260.88;10499106;28;20231;-64
2023/05/30 23:11:23;;;;;;;5.83;2.40;;;;;;;7.48;78.43;97261.56;10498978;28;20230;-64
2023/05/30 23:16:23;;;;;;;6.53;2.20;;;;;;;7.42;79.06;97262.06;10498675;28;20269;-63
2023/05/30 23:21:23;;;;;;;4.43;2.10;;;;;;;7.36;79.54;97249.50;10498736;28;20196;-64